Mary Alice II — WDE3827 — position and weather

sailwx.info

Track history (hours):
 
Tides and Currents Weather Stations Pressure Air Temp Water Temp Dewpoint Dewpoint Depression Visibility Wind Speed Wind Dir Waves Ship Positions

Mary Alice II

More information available from US FCC via Universal Licensing System and Coast Guard Vessel Documentation Center.

Last reported at 2014-May-22 17:34 UTC. Time now 2014-Jul-26 15:14 UTC.
Position N 54°23' W 130°37'.
Warning: this ship's position is months out of date.

Length 40 m; draft 2.2 m.

Type: Pleasure craft. MMSI: 367344710.

Date/timePositionNaut miles runAvg speedWind from/ knotsBaromVisibWave heightAir tempDewpointWater temp
2014-May-22 17:34N 54°23' W 130°37'155 6.0
2014-May-21 15:33N 52°14' W 128°12'7 6.6
2014-May-21 14:33N 52°09' W 128°05'0 0.0
2014-May-21 12:35N 52°09' W 128°05'0 0.0
2014-May-21 11:32N 52°09' W 128°05'0 0.0
2014-May-21 05:24N 52°09' W 128°05'0 0.0
2014-May-21 04:32N 52°09' W 128°05'0 0.0
2014-May-21 03:27N 52°09' W 128°05'0 0.0
2014-May-21 02:33N 52°09' W 128°05'0 0.0
2014-May-21 01:33N 52°09' W 128°05'0 0.0
2014-May-21 00:33N 52°09' W 128°05'1 0.7
2014-May-20 23:34N 52°09' W 128°06'8 7.4
2014-May-20 22:30N 52°04' W 127°56'3213.3
2014-May-20 20:07N 51°33' W 127°51'2312.9
2014-May-20 18:19N 51°09' W 127°52'1013.3
2014-May-20 17:32N 50°60' W 127°46'1413.8
2014-May-20 16:33N 50°51' W 127°30'1914.2
2014-May-20 15:12N 50°37' W 127°08'83 2.3
2014-May-19 02:28N 49°60' W 125°12'615.0
2014-May-19 02:04N 49°56' W 125°05'815.2
2014-May-19 01:32N 49°51' W 124°55'1315.2
2014-May-19 00:39N 49°42' W 124°40'215.7
2014-May-19 00:33N 49°41' W 124°38'516.2
2014-May-19 00:14N 49°38' W 124°32'1115.6
2014-May-18 23:33N 49°33' W 124°18'1315.9
2014-May-18 22:45N 49°25' W 124°02'316.1
2014-May-18 22:33N 49°23' W 123°58'516.0
2014-May-18 22:14N 49°19' W 123°53'1015.3
2014-May-18 21:33N 49°12' W 123°41'1616.2
2014-May-18 20:33N 49°01' W 123°23'914.8
2014-May-18 19:58N 48°55' W 123°13'717.2
2014-May-18 19:34N 48°51' W 123°05'411.3
2014-May-18 19:14N 48°48' W 123°02'812.2
2014-May-18 18:33N 48°44' W 123°12'1 8.8
2014-May-18 18:24N 48°45' W 123°14'0 0.1
2014-May-18 16:16N 48°45' W 123°14'7 9.3
2014-May-18 15:34N 48°38' W 123°12'2 2.4
2014-May-18 14:31N 48°37' W 123°09'0 0.0
2014-May-18 13:28N 48°37' W 123°09'0 0.0
2014-May-18 12:31N 48°37' W 123°09'0 0.0
2014-May-18 11:31N 48°37' W 123°09'0 0.0
2014-May-18 10:31N 48°37' W 123°09'0 0.0
2014-May-18 09:31N 48°37' W 123°09'0 0.0
2014-May-18 08:31N 48°37' W 123°09'0 0.0
2014-May-18 07:31N 48°37' W 123°09'0 0.0
2014-May-18 06:31N 48°37' W 123°09'0 0.0
2014-May-18 05:31N 48°37' W 123°09'0 0.0
2014-May-18 04:31N 48°37' W 123°09'0 0.0
2014-May-18 03:31N 48°37' W 123°09'0 0.0
2014-May-18 02:25N 48°37' W 123°09'0 0.0
2014-May-18 01:31N 48°37' W 123°09'0 0.0
2014-May-18 00:31N 48°37' W 123°09'0 0.0
2014-May-17 23:31N 48°37' W 123°09'0 0.0
2014-May-17 22:31N 48°37' W 123°09'0 0.0
2014-May-17 21:31N 48°37' W 123°09'0 0.0
2014-May-17 20:31N 48°37' W 123°09'0 0.0
2014-May-17 19:31N 48°37' W 123°09'1 0.8
2014-May-17 18:33N 48°37' W 123°10'7 7.4
2014-May-17 17:33N 48°30' W 123°09'1312.3
2014-May-17 16:31N 48°19' W 122°58'4414.9
2014-May-17 13:33N 47°41' W 122°25'0 1.4
2014-May-17 13:28N 47°41' W 122°24'0 0.5
2014-May-17 12:32N 47°41' W 122°24'0 0.0
2014-May-17 11:32N 47°41' W 122°24'0 0.0
2014-May-17 10:32N 47°41' W 122°24'0 0.0
2014-May-17 09:37N 47°41' W 122°24'0 0.0
2014-May-17 09:32N 47°41' W 122°24'0 0.0
2014-May-17 08:32N 47°41' W 122°24'0 0.0
2014-May-17 07:58N 47°41' W 122°24'0 0.0
2014-May-17 07:32N 47°41' W 122°24'0 0.0
2014-May-17 07:28N 47°41' W 122°24'0 0.0
2014-May-17 06:32N 47°41' W 122°24'0 0.0
2014-May-17 05:32N 47°41' W 122°24'0 0.0
2014-May-17 04:32N 47°41' W 122°24'0 0.0
2014-May-17 03:52N 47°41' W 122°24'0 0.0
2014-May-17 03:32N 47°41' W 122°24'0 0.0
2014-May-17 03:22N 47°41' W 122°24'0 0.0
2014-May-17 02:32N 47°41' W 122°24'0 0.0
2014-May-17 02:22N 47°41' W 122°24'0 0.0
2014-May-17 01:32N 47°41' W 122°24'0 0.0
2014-May-17 00:32N 47°41' W 122°24'0 0.0
2014-May-16 23:32N 47°41' W 122°24'0 0.0
2014-May-16 22:32N 47°41' W 122°24'0 0.0
2014-May-16 21:32N 47°41' W 122°24'0 0.0
2014-May-16 20:37N 47°41' W 122°24'0 0.0
2014-May-16 20:32N 47°41' W 122°24'0 0.0
2014-May-16 20:22N 47°41' W 122°24'0 0.0
2014-May-16 19:32N 47°41' W 122°24'0 0.0
2014-May-16 19:22N 47°41' W 122°24'0 0.0
2014-May-16 18:32N 47°41' W 122°24'0 0.0
2014-May-16 18:07N 47°41' W 122°24'0 0.0
2014-May-16 17:32N 47°41' W 122°24'0 0.0
2014-May-16 16:32N 47°41' W 122°24'0 0.0
2014-May-16 15:32N 47°41' W 122°24'0 0.0
2014-May-16 14:32N 47°41' W 122°24'0 0.0
2014-May-16 14:22N 47°41' W 122°24'0 0.0
2014-May-16 13:32N 47°41' W 122°24'0 0.0
2014-May-16 12:52N 47°41' W 122°24'0 0.0
2014-May-16 12:32N 47°41' W 122°24'0 0.0
2014-May-16 12:22N 47°41' W 122°24'0 0.0
2014-May-16 11:32N 47°41' W 122°24'0 0.0
2014-May-16 11:22N 47°41' W 122°24'0 0.0
2014-May-16 10:32N 47°41' W 122°24'0 0.0
2014-May-16 10:01N 47°41' W 122°24'0 0.0
2014-May-16 09:32N 47°41' W 122°24'0 0.0
2014-May-16 09:31N 47°41' W 122°24'0 0.0
2014-May-16 08:32N 47°41' W 122°24'0 0.0
2014-May-16 08:31N 47°41' W 122°24'0 0.0
2014-May-16 07:32N 47°41' W 122°24'0 0.0
2014-May-16 07:31N 47°41' W 122°24'0 0.0
2014-May-16 06:32N 47°41' W 122°24'0 0.0
2014-May-16 05:32N 47°41' W 122°24'0 0.0
2014-May-16 04:32N 47°41' W 122°24'0 0.0
2014-May-16 03:32N 47°41' W 122°24'0 0.0
2014-May-16 03:16N 47°41' W 122°24'0 0.0
2014-May-16 02:31N 47°41' W 122°24'0 0.0
2014-May-16 02:16N 47°41' W 122°24'0 0.0
2014-May-16 01:32N 47°41' W 122°24'0 0.0
2014-May-16 01:31N 47°41' W 122°24'0 0.0
2014-May-16 00:32N 47°41' W 122°24'0 0.0
2014-May-16 00:31N 47°41' W 122°24'0 0.0
2014-May-15 23:31N 47°41' W 122°24'0 0.0
2014-May-15 23:10N 47°41' W 122°24'0 0.0
2014-May-15 22:31N 47°41' W 122°24'0 0.0
2014-May-15 22:10N 47°41' W 122°24'0 0.0
2014-May-15 21:31N 47°41' W 122°24'0 0.0
2014-May-15 21:25N 47°41' W 122°24'0 0.0
2014-May-15 20:31N 47°41' W 122°24'0 0.1
2014-May-15 20:25N 47°41' W 122°24'0 0.0
2014-May-15 19:32N 47°41' W 122°24'0 0.0
2014-May-15 18:31N 47°41' W 122°24'0 0.0
2014-May-15 17:31N 47°41' W 122°24'0 0.0
2014-May-15 16:31N 47°41' W 122°24'0 0.0
2014-May-15 15:31N 47°41' W 122°24'0 0.0
2014-May-15 14:31N 47°41' W 122°24'0 0.0
2014-May-15 13:31N 47°41' W 122°24'0 0.0
2014-May-15 12:31N 47°41' W 122°24'0 0.0
2014-May-15 11:31N 47°41' W 122°24'0 0.0
2014-May-15 10:31N 47°41' W 122°24'0 0.0
2014-May-15 09:31N 47°41' W 122°24'0 0.0
2014-May-15 08:31N 47°41' W 122°24'0 0.0
2014-May-15 07:31N 47°41' W 122°24'0 0.0
2014-May-15 06:31N 47°41' W 122°24'0 0.0
2014-May-15 05:31N 47°41' W 122°24'0 0.0
2014-May-15 04:31N 47°41' W 122°24'0 0.0
2014-May-15 03:31N 47°41' W 122°24'0 0.0
2014-May-15 02:31N 47°41' W 122°24'0 0.0
2014-May-15 01:31N 47°41' W 122°24'0 0.0
2014-May-15 00:31N 47°41' W 122°24'0 0.0
2014-May-14 23:31N 47°41' W 122°24'0 0.0
2014-May-14 22:31N 47°41' W 122°24'0 0.0
2014-May-14 21:31N 47°41' W 122°24'0 0.0
2014-May-14 20:31N 47°41' W 122°24'0 0.0
2014-May-14 19:31N 47°41' W 122°24'0 0.0
2014-May-14 18:31N 47°41' W 122°24'0 0.0
2014-May-14 15:31N 47°41' W 122°24'0 0.0
2014-May-14 14:31N 47°41' W 122°24'0 0.0
2014-May-14 12:31N 47°41' W 122°24'0 0.0
2014-May-14 11:31N 47°41' W 122°24'0 0.0
2014-May-14 10:31N 47°41' W 122°24'0 0.0
2014-May-14 09:31N 47°41' W 122°24'0 0.0
2014-May-14 08:31N 47°41' W 122°24'0 0.0
2014-May-14 07:31N 47°41' W 122°24'0 0.0
2014-May-14 06:31N 47°41' W 122°24'0 0.0
2014-May-14 05:31N 47°41' W 122°24'0 0.0
2014-May-14 04:31N 47°41' W 122°24'0 0.0
2014-May-14 03:31N 47°41' W 122°24'0 0.0
2014-May-14 02:31N 47°41' W 122°24'0 0.0
2014-May-14 01:31N 47°41' W 122°24'0 0.0
2014-May-14 00:31N 47°41' W 122°24'0 0.0
2014-May-13 23:31N 47°41' W 122°24'0 0.1
2014-May-13 22:33N 47°41' W 122°25'4 3.9
2014-May-13 21:34N 47°45' W 122°25'4 3.7
2014-May-13 20:31N 47°41' W 122°24'0 0.0
2014-May-13 19:31N 47°41' W 122°24'0 0.0
2014-May-13 17:31N 47°41' W 122°24'0 0.0
2014-May-13 16:31N 47°41' W 122°24'0 0.0
2014-May-13 15:31N 47°41' W 122°24'0 0.0
2014-May-13 14:31N 47°41' W 122°24'0 0.0
2014-May-13 13:31N 47°41' W 122°24'0 0.0
2014-May-13 12:31N 47°41' W 122°24'0 0.0
2014-May-13 10:31N 47°41' W 122°24'0 0.0
2014-May-13 09:31N 47°41' W 122°24'0 0.0
2014-May-13 08:31N 47°41' W 122°24'0 0.0
2014-May-13 07:31N 47°41' W 122°24'0 0.0
2014-May-13 06:31N 47°41' W 122°24'0 0.0
2014-May-13 05:31N 47°41' W 122°24'0 0.0
2014-May-13 04:31N 47°41' W 122°24'0 0.0
2014-May-13 03:31N 47°41' W 122°24'0 0.0
2014-May-13 02:31N 47°41' W 122°24'0 0.0
2014-May-13 01:31N 47°41' W 122°24'0 0.0
2014-May-13 00:31N 47°41' W 122°24'0 0.0
2014-May-12 23:31N 47°41' W 122°24'0 0.0
2014-May-12 22:31N 47°41' W 122°24'0 0.0
2014-May-12 21:31N 47°41' W 122°24'0 0.0
2014-May-12 19:31N 47°41' W 122°24'0 0.0
2014-May-12 18:31N 47°41' W 122°24'0 0.0
2014-May-12 18:01N 47°41' W 122°24'  
Track history (hours):
 
Tides and Currents Weather Stations Pressure Air Temp Water Temp Dewpoint Dewpoint Depression Visibility Wind Speed Wind Dir Waves Ship Positions

Mary Alice II

More information available from US FCC via Universal Licensing System and Coast Guard Vessel Documentation Center.

Last reported at 2014-May-22 17:34 UTC. Time now 2014-Jul-26 15:14 UTC.
Position N 54°23' W 130°37'.
Warning: this ship's position is months out of date.

Length 40 m; draft 2.2 m.

Type: Pleasure craft. MMSI: 367344710.

Date/timePositionNaut miles runAvg speedWind from/ knotsBaromVisibWave heightAir tempDewpointWater temp
2014-May-22 17:34N 54°23' W 130°37'155 6.0
2014-May-21 15:33N 52°14' W 128°12'7 6.6
2014-May-21 14:33N 52°09' W 128°05'0 0.0
2014-May-21 12:35N 52°09' W 128°05'0 0.0
2014-May-21 11:32N 52°09' W 128°05'0 0.0
2014-May-21 05:24N 52°09' W 128°05'0 0.0
2014-May-21 04:32N 52°09' W 128°05'0 0.0
2014-May-21 03:27N 52°09' W 128°05'0 0.0
2014-May-21 02:33N 52°09' W 128°05'0 0.0
2014-May-21 01:33N 52°09' W 128°05'0 0.0
2014-May-21 00:33N 52°09' W 128°05'1 0.7
2014-May-20 23:34N 52°09' W 128°06'8 7.4
2014-May-20 22:30N 52°04' W 127°56'3213.3
2014-May-20 20:07N 51°33' W 127°51'2312.9
2014-May-20 18:19N 51°09' W 127°52'1013.3
2014-May-20 17:32N 50°60' W 127°46'1413.8
2014-May-20 16:33N 50°51' W 127°30'1914.2
2014-May-20 15:12N 50°37' W 127°08'83 2.3
2014-May-19 02:28N 49°60' W 125°12'615.0
2014-May-19 02:04N 49°56' W 125°05'815.2
2014-May-19 01:32N 49°51' W 124°55'1315.2
2014-May-19 00:39N 49°42' W 124°40'215.7
2014-May-19 00:33N 49°41' W 124°38'516.2
2014-May-19 00:14N 49°38' W 124°32'1115.6
2014-May-18 23:33N 49°33' W 124°18'1315.9
2014-May-18 22:45N 49°25' W 124°02'316.1
2014-May-18 22:33N 49°23' W 123°58'516.0
2014-May-18 22:14N 49°19' W 123°53'1015.3
2014-May-18 21:33N 49°12' W 123°41'1616.2
2014-May-18 20:33N 49°01' W 123°23'914.8
2014-May-18 19:58N 48°55' W 123°13'717.2
2014-May-18 19:34N 48°51' W 123°05'411.3
2014-May-18 19:14N 48°48' W 123°02'812.2
2014-May-18 18:33N 48°44' W 123°12'1 8.8
2014-May-18 18:24N 48°45' W 123°14'0 0.1
2014-May-18 16:16N 48°45' W 123°14'7 9.3
2014-May-18 15:34N 48°38' W 123°12'2 2.4
2014-May-18 14:31N 48°37' W 123°09'0 0.0
2014-May-18 13:28N 48°37' W 123°09'0 0.0
2014-May-18 12:31N 48°37' W 123°09'0 0.0
2014-May-18 11:31N 48°37' W 123°09'0 0.0
2014-May-18 10:31N 48°37' W 123°09'0 0.0
2014-May-18 09:31N 48°37' W 123°09'0 0.0
2014-May-18 08:31N 48°37' W 123°09'0 0.0
2014-May-18 07:31N 48°37' W 123°09'0 0.0
2014-May-18 06:31N 48°37' W 123°09'0 0.0
2014-May-18 05:31N 48°37' W 123°09'0 0.0
2014-May-18 04:31N 48°37' W 123°09'0 0.0
2014-May-18 03:31N 48°37' W 123°09'0 0.0
2014-May-18 02:25N 48°37' W 123°09'0 0.0
2014-May-18 01:31N 48°37' W 123°09'0 0.0
2014-May-18 00:31N 48°37' W 123°09'0 0.0
2014-May-17 23:31N 48°37' W 123°09'0 0.0
2014-May-17 22:31N 48°37' W 123°09'0 0.0
2014-May-17 21:31N 48°37' W 123°09'0 0.0
2014-May-17 20:31N 48°37' W 123°09'0 0.0
2014-May-17 19:31N 48°37' W 123°09'1 0.8
2014-May-17 18:33N 48°37' W 123°10'7 7.4
2014-May-17 17:33N 48°30' W 123°09'1312.3
2014-May-17 16:31N 48°19' W 122°58'4414.9
2014-May-17 13:33N 47°41' W 122°25'0 1.4
2014-May-17 13:28N 47°41' W 122°24'0 0.5
2014-May-17 12:32N 47°41' W 122°24'0 0.0
2014-May-17 11:32N 47°41' W 122°24'0 0.0
2014-May-17 10:32N 47°41' W 122°24'0 0.0
2014-May-17 09:37N 47°41' W 122°24'0 0.0
2014-May-17 09:32N 47°41' W 122°24'0 0.0
2014-May-17 08:32N 47°41' W 122°24'0 0.0
2014-May-17 07:58N 47°41' W 122°24'0 0.0
2014-May-17 07:32N 47°41' W 122°24'0 0.0
2014-May-17 07:28N 47°41' W 122°24'0 0.0
2014-May-17 06:32N 47°41' W 122°24'0 0.0
2014-May-17 05:32N 47°41' W 122°24'0 0.0
2014-May-17 04:32N 47°41' W 122°24'0 0.0
2014-May-17 03:52N 47°41' W 122°24'0 0.0
2014-May-17 03:32N 47°41' W 122°24'0 0.0
2014-May-17 03:22N 47°41' W 122°24'0 0.0
2014-May-17 02:32N 47°41' W 122°24'0 0.0
2014-May-17 02:22N 47°41' W 122°24'0 0.0
2014-May-17 01:32N 47°41' W 122°24'0 0.0
2014-May-17 00:32N 47°41' W 122°24'0 0.0
2014-May-16 23:32N 47°41' W 122°24'0 0.0
2014-May-16 22:32N 47°41' W 122°24'0 0.0
2014-May-16 21:32N 47°41' W 122°24'0 0.0
2014-May-16 20:37N 47°41' W 122°24'0 0.0
2014-May-16 20:32N 47°41' W 122°24'0 0.0
2014-May-16 20:22N 47°41' W 122°24'0 0.0
2014-May-16 19:32N 47°41' W 122°24'0 0.0
2014-May-16 19:22N 47°41' W 122°24'0 0.0
2014-May-16 18:32N 47°41' W 122°24'0 0.0
2014-May-16 18:07N 47°41' W 122°24'0 0.0
2014-May-16 17:32N 47°41' W 122°24'0 0.0
2014-May-16 16:32N 47°41' W 122°24'0 0.0
2014-May-16 15:32N 47°41' W 122°24'0 0.0
2014-May-16 14:32N 47°41' W 122°24'0 0.0
2014-May-16 14:22N 47°41' W 122°24'0 0.0
2014-May-16 13:32N 47°41' W 122°24'0 0.0
2014-May-16 12:52N 47°41' W 122°24'0 0.0
2014-May-16 12:32N 47°41' W 122°24'0 0.0
2014-May-16 12:22N 47°41' W 122°24'0 0.0
2014-May-16 11:32N 47°41' W 122°24'0 0.0
2014-May-16 11:22N 47°41' W 122°24'0 0.0
2014-May-16 10:32N 47°41' W 122°24'0 0.0
2014-May-16 10:01N 47°41' W 122°24'0 0.0
2014-May-16 09:32N 47°41' W 122°24'0 0.0
2014-May-16 09:31N 47°41' W 122°24'0 0.0
2014-May-16 08:32N 47°41' W 122°24'0 0.0
2014-May-16 08:31N 47°41' W 122°24'0 0.0
2014-May-16 07:32N 47°41' W 122°24'0 0.0
2014-May-16 07:31N 47°41' W 122°24'0 0.0
2014-May-16 06:32N 47°41' W 122°24'0 0.0
2014-May-16 05:32N 47°41' W 122°24'0 0.0
2014-May-16 04:32N 47°41' W 122°24'0 0.0
2014-May-16 03:32N 47°41' W 122°24'0 0.0
2014-May-16 03:16N 47°41' W 122°24'0 0.0
2014-May-16 02:31N 47°41' W 122°24'0 0.0
2014-May-16 02:16N 47°41' W 122°24'0 0.0
2014-May-16 01:32N 47°41' W 122°24'0 0.0
2014-May-16 01:31N 47°41' W 122°24'0 0.0
2014-May-16 00:32N 47°41' W 122°24'0 0.0
2014-May-16 00:31N 47°41' W 122°24'0 0.0
2014-May-15 23:31N 47°41' W 122°24'0 0.0
2014-May-15 23:10N 47°41' W 122°24'0 0.0
2014-May-15 22:31N 47°41' W 122°24'0 0.0
2014-May-15 22:10N 47°41' W 122°24'0 0.0
2014-May-15 21:31N 47°41' W 122°24'0 0.0
2014-May-15 21:25N 47°41' W 122°24'0 0.0
2014-May-15 20:31N 47°41' W 122°24'0 0.1
2014-May-15 20:25N 47°41' W 122°24'0 0.0
2014-May-15 19:32N 47°41' W 122°24'0 0.0
2014-May-15 18:31N 47°41' W 122°24'0 0.0
2014-May-15 17:31N 47°41' W 122°24'0 0.0
2014-May-15 16:31N 47°41' W 122°24'0 0.0
2014-May-15 15:31N 47°41' W 122°24'0 0.0
2014-May-15 14:31N 47°41' W 122°24'0 0.0
2014-May-15 13:31N 47°41' W 122°24'0 0.0
2014-May-15 12:31N 47°41' W 122°24'0 0.0
2014-May-15 11:31N 47°41' W 122°24'0 0.0
2014-May-15 10:31N 47°41' W 122°24'0 0.0
2014-May-15 09:31N 47°41' W 122°24'0 0.0
2014-May-15 08:31N 47°41' W 122°24'0 0.0
2014-May-15 07:31N 47°41' W 122°24'0 0.0
2014-May-15 06:31N 47°41' W 122°24'0 0.0
2014-May-15 05:31N 47°41' W 122°24'0 0.0
2014-May-15 04:31N 47°41' W 122°24'0 0.0
2014-May-15 03:31N 47°41' W 122°24'0 0.0
2014-May-15 02:31N 47°41' W 122°24'0 0.0
2014-May-15 01:31N 47°41' W 122°24'0 0.0
2014-May-15 00:31N 47°41' W 122°24'0 0.0
2014-May-14 23:31N 47°41' W 122°24'0 0.0
2014-May-14 22:31N 47°41' W 122°24'0 0.0
2014-May-14 21:31N 47°41' W 122°24'0 0.0
2014-May-14 20:31N 47°41' W 122°24'0 0.0
2014-May-14 19:31N 47°41' W 122°24'0 0.0
2014-May-14 18:31N 47°41' W 122°24'0 0.0
2014-May-14 15:31N 47°41' W 122°24'0 0.0
2014-May-14 14:31N 47°41' W 122°24'0 0.0
2014-May-14 12:31N 47°41' W 122°24'0 0.0
2014-May-14 11:31N 47°41' W 122°24'0 0.0
2014-May-14 10:31N 47°41' W 122°24'0 0.0
2014-May-14 09:31N 47°41' W 122°24'0 0.0
2014-May-14 08:31N 47°41' W 122°24'0 0.0
2014-May-14 07:31N 47°41' W 122°24'0 0.0
2014-May-14 06:31N 47°41' W 122°24'0 0.0
2014-May-14 05:31N 47°41' W 122°24'0 0.0
2014-May-14 04:31N 47°41' W 122°24'0 0.0
2014-May-14 03:31N 47°41' W 122°24'0 0.0
2014-May-14 02:31N 47°41' W 122°24'0 0.0
2014-May-14 01:31N 47°41' W 122°24'0 0.0
2014-May-14 00:31N 47°41' W 122°24'0 0.0
2014-May-13 23:31N 47°41' W 122°24'0 0.1
2014-May-13 22:33N 47°41' W 122°25'4 3.9
2014-May-13 21:34N 47°45' W 122°25'4 3.7
2014-May-13 20:31N 47°41' W 122°24'0 0.0
2014-May-13 19:31N 47°41' W 122°24'0 0.0
2014-May-13 17:31N 47°41' W 122°24'0 0.0
2014-May-13 16:31N 47°41' W 122°24'0 0.0
2014-May-13 15:31N 47°41' W 122°24'0 0.0
2014-May-13 14:31N 47°41' W 122°24'0 0.0
2014-May-13 13:31N 47°41' W 122°24'0 0.0
2014-May-13 12:31N 47°41' W 122°24'0 0.0
2014-May-13 10:31N 47°41' W 122°24'0 0.0
2014-May-13 09:31N 47°41' W 122°24'0 0.0
2014-May-13 08:31N 47°41' W 122°24'0 0.0
2014-May-13 07:31N 47°41' W 122°24'0 0.0
2014-May-13 06:31N 47°41' W 122°24'0 0.0
2014-May-13 05:31N 47°41' W 122°24'0 0.0
2014-May-13 04:31N 47°41' W 122°24'0 0.0
2014-May-13 03:31N 47°41' W 122°24'0 0.0
2014-May-13 02:31N 47°41' W 122°24'0 0.0
2014-May-13 01:31N 47°41' W 122°24'0 0.0
2014-May-13 00:31N 47°41' W 122°24'0 0.0
2014-May-12 23:31N 47°41' W 122°24'0 0.0
2014-May-12 22:31N 47°41' W 122°24'0 0.0
2014-May-12 21:31N 47°41' W 122°24'0 0.0
2014-May-12 19:31N 47°41' W 122°24'0 0.0
2014-May-12 18:31N 47°41' W 122°24'0 0.0
2014-May-12 18:01N 47°41' W 122°24'  

Dump ship's entire track history